createdAt,value
2024-04-25T00:02:12.632Z,2.30
2024-04-25T00:04:43.882Z,2.70
2024-04-25T00:07:14.978Z,2.15
2024-04-25T00:09:46.322Z,2.17
2024-04-25T00:12:20.032Z,1.90
2024-04-25T00:14:51.219Z,2.33
2024-04-25T00:17:22.281Z,2.53
2024-04-25T00:19:53.512Z,2.50
2024-04-25T00:22:25.137Z,2.42
2024-04-25T00:24:57.013Z,3.10
2024-04-25T00:27:30.758Z,5.30
2024-04-25T00:30:01.968Z,5.70
2024-04-25T00:32:36.575Z,4.25
2024-04-25T00:35:08.220Z,3.70
2024-04-25T00:37:39.355Z,3.90
2024-04-25T00:40:11.880Z,3.30
2024-04-25T00:42:45.748Z,3.13
2024-04-25T00:45:16.869Z,3.33
2024-04-25T00:47:45.868Z,3.53
2024-04-25T00:50:17.721Z,3.08
2024-04-25T00:52:49.162Z,3.17
2024-04-25T00:55:20.440Z,2.95
2024-04-25T00:57:55.362Z,2.95
2024-04-25T01:00:29.174Z,3.58
2024-04-25T01:03:01.411Z,3.22
2024-04-25T01:05:34.253Z,3.13
2024-04-25T01:08:09.151Z,3.30
2024-04-25T01:10:40.369Z,3.40
2024-04-25T01:13:14.485Z,3.08
2024-04-25T01:15:45.736Z,3.35
2024-04-25T01:18:17.853Z,3.10
2024-04-25T01:20:49.098Z,3.10
2024-04-25T01:23:20.574Z,3.50
2024-04-25T01:25:55.150Z,3.58
2024-04-25T01:28:26.432Z,3.40
2024-04-25T01:30:57.624Z,3.30
2024-04-25T01:33:30.670Z,3.33
2024-04-25T01:38:36.102Z,3.00
2024-04-25T01:41:10.068Z,3.10
2024-04-25T01:43:41.434Z,3.60
2024-04-25T01:46:12.728Z,3.72
2024-04-25T01:48:47.135Z,3.20
2024-04-25T01:51:19.088Z,3.40
2024-04-25T01:53:50.176Z,3.40
2024-04-25T01:56:24.087Z,3.60
2024-04-25T01:58:55.852Z,3.30
2024-04-25T02:01:27.068Z,3.22
2024-04-25T02:03:58.234Z,3.42
2024-04-25T02:06:29.344Z,3.63
2024-04-25T02:09:00.469Z,3.90
2024-04-25T02:11:35.895Z,3.80
2024-04-25T02:14:08.592Z,4.15
2024-04-25T02:19:11.174Z,3.80
2024-04-25T02:21:58.031Z,4.43
2024-04-25T02:24:44.806Z,3.85
2024-04-25T02:27:20.899Z,4.43
2024-04-25T02:29:52.260Z,3.92
2024-04-25T02:32:24.011Z,4.20
2024-04-25T02:34:55.227Z,4.53
2024-04-25T02:37:26.525Z,4.53
2024-04-25T02:39:57.833Z,5.57
2024-04-25T02:42:31.599Z,5.30
2024-04-25T02:45:02.642Z,4.60
2024-04-25T02:47:33.085Z,4.93
2024-04-25T02:50:04.372Z,6.35
2024-04-25T02:52:33.007Z,4.60
2024-04-25T02:55:04.278Z,4.97
2024-04-25T02:57:36.832Z,6.80
2024-04-25T03:00:09.117Z,5.18
2024-04-25T03:02:37.918Z,5.95
2024-04-25T03:05:09.422Z,6.07
2024-04-25T03:07:38.388Z,5.30
2024-04-25T03:10:10.631Z,5.45
2024-04-25T03:12:41.895Z,5.05
2024-04-25T03:15:13.466Z,5.10
2024-04-25T03:17:42.034Z,4.72
2024-04-25T03:20:14.512Z,5.47
2024-04-25T03:22:43.003Z,5.25
2024-04-25T03:25:13.959Z,4.93
2024-04-25T03:27:45.303Z,7.05
2024-04-25T03:30:16.455Z,6.18
2024-04-25T03:32:44.886Z,5.38
2024-04-25T03:35:16.388Z,6.00
2024-04-25T03:37:49.515Z,6.20
2024-04-25T03:40:20.614Z,7.10
2024-04-25T03:42:54.322Z,6.13
2024-04-25T03:45:28.108Z,8.07
2024-04-25T03:47:59.588Z,6.72
2024-04-25T03:50:30.994Z,8.35
2024-04-25T03:53:02.174Z,8.82
2024-04-25T03:55:34.318Z,13.35
2024-04-25T03:58:08.361Z,7.93
2024-04-25T04:00:39.525Z,6.80
2024-04-25T04:03:11.206Z,6.28
2024-04-25T04:05:43.258Z,6.50
2024-04-25T04:08:15.066Z,7.78
2024-04-25T04:10:46.356Z,11.48
2024-04-25T04:13:20.132Z,10.25
2024-04-25T04:15:51.317Z,6.82
2024-04-25T04:18:22.401Z,7.43
2024-04-25T04:20:53.732Z,6.30
2024-04-25T04:23:25.536Z,6.32
2024-04-25T04:25:57.022Z,6.20
2024-04-25T04:28:30.882Z,6.82
2024-04-25T04:31:02.142Z,8.23
2024-04-25T04:33:40.004Z,7.30
2024-04-25T04:36:12.498Z,7.25
2024-04-25T04:38:43.694Z,7.10
2024-04-25T04:41:15.839Z,8.48
2024-04-25T04:43:51.673Z,7.30
2024-04-25T04:46:22.869Z,7.95
2024-04-25T04:48:54.372Z,7.00
2024-04-25T04:51:25.701Z,7.18
2024-04-25T04:53:56.773Z,7.85
2024-04-25T04:56:28.327Z,7.75
2024-04-25T04:59:02.275Z,7.30
2024-04-25T05:01:33.464Z,8.15
2024-04-25T05:04:04.718Z,9.85
2024-04-25T05:06:36.177Z,8.95
2024-04-25T05:09:11.046Z,9.93
2024-04-25T05:11:42.187Z,9.68
2024-04-25T05:14:16.058Z,11.27
2024-04-25T05:16:47.565Z,11.63
2024-04-25T05:19:20.864Z,9.88
2024-04-25T05:21:55.462Z,11.80
2024-04-25T05:24:26.958Z,15.00
2024-04-25T05:26:58.539Z,14.13
2024-04-25T05:29:34.609Z,11.98
2024-04-25T05:32:06.590Z,10.50
2024-04-25T05:34:37.694Z,9.60
2024-04-25T05:37:09.016Z,11.00
2024-04-25T05:39:40.170Z,11.75
2024-04-25T05:42:11.295Z,10.10
2024-04-25T05:44:48.616Z,10.38
2024-04-25T05:47:19.905Z,10.35
2024-04-25T05:49:51.766Z,12.95
2024-04-25T05:52:23.126Z,13.07
2024-04-25T05:54:54.296Z,16.63
2024-04-25T05:57:25.650Z,13.52
2024-04-25T06:00:00.423Z,26.35
2024-04-25T06:02:31.799Z,21.08
2024-04-25T06:05:02.997Z,20.80
2024-04-25T06:10:10.746Z,14.93
2024-04-25T06:12:42.191Z,15.48
2024-04-25T06:15:16.348Z,16.13
2024-04-25T06:17:47.496Z,12.57
2024-04-25T06:20:21.530Z,10.55
2024-04-25T06:22:53.105Z,10.77
2024-04-25T06:25:24.478Z,15.10
2024-04-25T06:27:56.457Z,10.77
2024-04-25T06:30:30.554Z,17.33
2024-04-25T06:33:01.993Z,9.27
2024-04-25T06:35:33.938Z,8.07
2024-04-25T06:38:05.540Z,7.85
2024-04-25T06:40:36.632Z,7.18
2024-04-25T06:43:08.045Z,6.97
2024-04-25T06:45:43.159Z,7.57
2024-04-25T06:48:14.908Z,7.45
2024-04-25T06:50:46.537Z,7.72
2024-04-25T06:53:17.726Z,7.70
2024-04-25T06:55:48.858Z,8.50
2024-04-25T06:58:21.177Z,8.02
2024-04-25T07:00:55.175Z,9.15
2024-04-25T07:03:26.995Z,10.60
2024-04-25T07:05:58.266Z,10.90
2024-04-25T07:08:31.511Z,8.70
2024-04-25T07:11:04.651Z,12.35
2024-04-25T07:13:35.851Z,12.88
2024-04-25T07:16:11.136Z,13.68
2024-04-25T07:18:42.528Z,9.77
2024-04-25T07:21:13.678Z,7.65
2024-04-25T07:23:45.108Z,8.82
2024-04-25T07:26:16.275Z,7.00
2024-04-25T07:28:47.600Z,8.32
2024-04-25T07:31:21.437Z,9.25
2024-04-25T07:33:55.687Z,7.50
2024-04-25T07:36:28.371Z,8.27
2024-04-25T07:38:59.672Z,6.50
2024-04-25T07:41:33.496Z,6.57
2024-04-25T07:44:04.733Z,10.88
2024-04-25T07:46:42.534Z,7.90
2024-04-25T07:49:14.111Z,7.30
2024-04-25T07:51:45.481Z,6.32
2024-04-25T07:54:16.732Z,5.82
2024-04-25T07:56:48.478Z,5.75
2024-04-25T07:59:19.909Z,5.68
2024-04-25T08:01:53.802Z,6.10
2024-04-25T08:04:25.196Z,6.35
2024-04-25T08:06:56.325Z,5.18
2024-04-25T08:09:27.519Z,5.20
2024-04-25T08:11:58.733Z,5.07
2024-04-25T08:14:29.957Z,6.20
2024-04-25T08:17:03.790Z,6.30
2024-04-25T08:19:35.092Z,7.78
2024-04-25T08:22:07.482Z,5.28
2024-04-25T08:24:39.013Z,6.72
2024-04-25T08:27:10.118Z,5.57
2024-04-25T08:29:41.355Z,5.93
2024-04-25T08:32:15.346Z,6.90
2024-04-25T08:34:46.706Z,6.50
2024-04-25T08:37:17.789Z,7.30
2024-04-25T08:39:48.780Z,7.32
2024-04-25T08:42:23.467Z,6.78
2024-04-25T08:44:54.980Z,7.28
2024-04-25T08:47:30.442Z,8.77
2024-04-25T08:50:05.719Z,6.72
2024-04-25T08:52:38.042Z,6.53
2024-04-25T08:55:12.947Z,7.20
2024-04-25T08:57:44.209Z,7.05
2024-04-25T09:00:16.094Z,6.50
2024-04-25T09:02:53.311Z,6.68
2024-04-25T09:05:26.394Z,8.07
2024-04-25T09:08:00.688Z,7.40
2024-04-25T09:10:42.149Z,8.38
2024-04-25T09:13:13.368Z,7.60
2024-04-25T09:15:44.882Z,7.78
2024-04-25T09:18:19.194Z,7.70
2024-04-25T09:20:50.456Z,8.18
2024-04-25T09:23:21.622Z,24.50
2024-04-25T09:25:53.458Z,9.50
2024-04-25T09:28:25.104Z,8.45
2024-04-25T09:30:56.385Z,8.50
2024-04-25T09:33:30.738Z,9.20
2024-04-25T09:36:02.287Z,8.40
2024-04-25T09:38:33.567Z,8.93
2024-04-25T09:41:06.659Z,7.72
2024-04-25T09:46:13.941Z,20.35
2024-04-25T09:48:51.384Z,9.00
2024-04-25T09:51:27.125Z,30.73
2024-04-25T09:54:03.157Z,10.80
2024-04-25T09:56:35.239Z,11.57
2024-04-25T09:59:12.886Z,9.82
2024-04-25T10:01:45.777Z,7.13
2024-04-25T10:04:20.088Z,7.50
2024-04-25T10:06:51.897Z,12.75
2024-04-25T10:09:23.655Z,8.13
2024-04-25T10:11:54.830Z,9.20
2024-04-25T10:14:29.741Z,8.75
2024-04-25T10:17:03.380Z,6.28
2024-04-25T10:19:44.479Z,7.40
2024-04-25T10:22:23.985Z,7.07
2024-04-25T10:24:56.306Z,9.65
2024-04-25T10:27:30.522Z,7.73
2024-04-25T10:30:06.719Z,10.98
2024-04-25T10:32:40.806Z,7.03
2024-04-25T10:35:16.891Z,11.70
2024-04-25T10:37:49.524Z,11.10
2024-04-25T10:40:22.190Z,9.15
2024-04-25T10:43:04.911Z,8.63
2024-04-25T10:45:38.175Z,8.75
2024-04-25T10:48:11.730Z,8.80
2024-04-25T10:50:47.141Z,7.57
2024-04-25T10:53:18.542Z,7.88
2024-04-25T10:55:49.826Z,8.18
2024-04-25T10:58:20.924Z,8.43
2024-04-25T11:00:51.997Z,9.63
2024-04-25T11:03:23.263Z,8.10
2024-04-25T11:05:57.386Z,7.57
2024-04-25T11:08:29.472Z,6.32
2024-04-25T11:11:01.198Z,6.57
2024-04-25T11:13:32.933Z,7.32
2024-04-25T11:16:04.020Z,6.82
2024-04-25T11:18:35.791Z,5.97
2024-04-25T11:21:11.956Z,6.63
2024-04-25T11:23:43.313Z,6.45
2024-04-25T11:26:15.133Z,5.35
2024-04-25T11:28:46.363Z,5.85
2024-04-25T11:31:17.470Z,5.50
2024-04-25T11:33:48.805Z,5.47
2024-04-25T11:36:31.217Z,5.13
2024-04-25T11:39:05.993Z,5.70
2024-04-25T11:41:37.451Z,6.40
2024-04-25T11:44:08.838Z,6.22
2024-04-25T11:46:40.370Z,5.70
2024-04-25T11:49:11.712Z,5.70
2024-04-25T11:51:45.724Z,5.43
2024-04-25T11:54:16.958Z,5.38
2024-04-25T11:56:48.303Z,4.88
2024-04-25T11:59:19.641Z,8.40
2024-04-25T12:01:54.405Z,5.35
2024-04-25T12:04:28.803Z,4.63
2024-04-25T12:07:02.835Z,14.25
2024-04-25T12:09:34.127Z,6.32
2024-04-25T12:12:05.449Z,9.38
2024-04-25T12:14:36.975Z,8.90
2024-04-25T12:17:08.939Z,4.25
2024-04-25T12:19:40.094Z,3.50
2024-04-25T12:22:15.813Z,7.47
2024-04-25T12:24:46.994Z,5.50
2024-04-25T12:27:18.343Z,4.53
2024-04-25T12:29:50.767Z,3.30
2024-04-25T12:32:22.084Z,2.70
2024-04-25T12:34:53.151Z,2.53
2024-04-25T12:37:26.859Z,3.13
2024-04-25T12:39:58.215Z,2.50
2024-04-25T12:42:29.261Z,3.80
2024-04-25T12:45:00.444Z,3.40
2024-04-25T12:47:31.692Z,2.85
2024-04-25T12:50:02.939Z,2.97
2024-04-25T12:52:37.502Z,4.68
2024-04-25T12:55:09.021Z,2.20
2024-04-25T12:57:40.312Z,2.78
2024-04-25T13:00:13.237Z,3.45
2024-04-25T13:02:44.796Z,2.92
2024-04-25T13:05:16.376Z,3.45
2024-04-25T13:07:50.268Z,5.40
2024-04-25T13:10:21.777Z,4.15
2024-04-25T13:12:53.477Z,3.58
2024-04-25T13:15:27.897Z,3.90
2024-04-25T13:18:00.568Z,4.10
2024-04-25T13:20:32.024Z,3.00
2024-04-25T13:23:06.302Z,2.60
2024-04-25T13:25:38.305Z,2.53
2024-04-25T13:28:09.639Z,2.45
2024-04-25T13:30:40.953Z,3.17
2024-04-25T13:33:13.328Z,3.67
2024-04-25T13:35:44.730Z,2.97
2024-04-25T13:38:18.664Z,3.05
2024-04-25T13:40:49.883Z,3.30
2024-04-25T13:43:22.229Z,4.47
2024-04-25T13:45:54.844Z,2.80
2024-04-25T13:48:26.552Z,3.58
2024-04-25T13:50:57.967Z,3.33
2024-04-25T13:53:31.902Z,3.30
2024-04-25T13:56:03.116Z,5.07
2024-04-25T13:58:35.828Z,13.30
2024-04-25T14:01:12.667Z,3.95
2024-04-25T14:03:45.359Z,4.97
2024-04-25T14:06:17.874Z,4.00
2024-04-25T14:08:51.984Z,6.93
2024-04-25T14:11:23.446Z,7.88
2024-04-25T14:13:54.887Z,14.73
2024-04-25T14:16:26.385Z,8.63
2024-04-25T14:18:56.807Z,36.53
2024-04-25T14:21:28.689Z,65.57
2024-04-25T14:24:02.732Z,198.57
2024-04-25T14:26:49.620Z,113.20
2024-04-25T14:29:22.040Z,80.90
2024-04-25T14:31:53.187Z,20.70
2024-04-25T14:34:27.266Z,40.97
2024-04-25T14:36:59.316Z,95.53
2024-04-25T14:39:33.091Z,28.75
2024-04-25T14:42:04.322Z,32.70
2024-04-25T14:44:36.990Z,17.98
2024-04-25T14:47:09.272Z,16.90
2024-04-25T14:49:41.095Z,45.55
2024-04-25T14:52:12.271Z,32.30
2024-04-25T14:54:46.941Z,72.50
2024-04-25T14:57:18.140Z,51.53
2024-04-25T14:59:50.455Z,22.10
2024-04-25T15:02:21.821Z,31.00
2024-04-25T15:04:53.143Z,61.67
2024-04-25T15:07:24.452Z,33.25
2024-04-25T15:09:58.447Z,9.35
2024-04-25T15:12:30.534Z,5.65
2024-04-25T15:15:11.535Z,5.90
2024-04-25T15:17:50.316Z,20.27
2024-04-25T15:20:22.495Z,6.93
2024-04-25T15:22:56.301Z,22.85
2024-04-25T15:25:31.812Z,11.75
2024-04-25T15:28:04.059Z,11.30
2024-04-25T15:30:37.098Z,7.05
2024-04-25T15:35:39.755Z,12.88
2024-04-25T15:38:10.919Z,8.57
2024-04-25T15:40:44.951Z,6.90
2024-04-25T15:43:16.290Z,5.15
2024-04-25T15:45:47.614Z,6.30
2024-04-25T15:48:19.123Z,5.90
2024-04-25T15:50:50.436Z,5.68
2024-04-25T15:53:21.733Z,4.85
2024-04-25T15:55:56.826Z,6.00
2024-04-25T15:58:27.954Z,7.22
2024-04-25T16:00:59.472Z,5.50
2024-04-25T16:03:31.174Z,6.43
2024-04-25T16:06:02.557Z,7.10
2024-04-25T16:08:34.035Z,5.05
2024-04-25T16:11:08.346Z,5.82
2024-04-25T16:13:39.774Z,6.60
2024-04-25T16:16:12.211Z,6.05
2024-04-25T16:18:43.439Z,47.13
2024-04-25T16:21:14.780Z,9.00
2024-04-25T16:23:46.394Z,12.88
2024-04-25T16:26:22.708Z,9.13
2024-04-25T16:28:54.070Z,19.52
2024-04-25T16:31:27.492Z,12.50
2024-04-25T16:33:59.657Z,10.70
2024-04-25T16:36:33.158Z,10.13
2024-04-25T16:39:04.315Z,16.42
2024-04-25T16:41:38.405Z,9.45
2024-04-25T16:44:09.842Z,8.30
2024-04-25T16:46:41.702Z,9.73
2024-04-25T16:49:12.965Z,8.40
2024-04-25T16:51:44.211Z,11.70
2024-04-25T16:54:15.719Z,9.45
2024-04-25T16:56:49.779Z,11.70
2024-04-25T16:59:24.368Z,12.48
2024-04-25T17:01:55.782Z,12.20
2024-04-25T17:04:27.117Z,12.00
2024-04-25T17:06:59.048Z,10.85
2024-04-25T17:09:30.201Z,15.15
2024-04-25T17:12:04.084Z,21.73
2024-04-25T17:14:35.614Z,14.30
2024-04-25T17:17:07.271Z,20.98
2024-04-25T17:19:38.523Z,27.52
2024-04-25T17:22:11.309Z,34.63
2024-04-25T17:24:42.981Z,35.03
2024-04-25T17:27:16.795Z,21.35
2024-04-25T17:29:48.099Z,14.20
2024-04-25T17:32:21.374Z,13.15
2024-04-25T17:34:52.563Z,12.68
2024-04-25T17:37:23.697Z,11.70
2024-04-25T17:39:55.123Z,13.48
2024-04-25T17:42:29.062Z,12.90
2024-04-25T17:45:00.513Z,12.75
2024-04-25T17:47:32.208Z,37.83
2024-04-25T17:50:03.657Z,45.95
2024-04-25T17:52:34.957Z,91.63
2024-04-25T17:55:09.021Z,38.50
2024-04-25T17:57:44.409Z,25.60
2024-04-25T18:00:16.991Z,16.70
2024-04-25T18:02:51.475Z,13.07
2024-04-25T18:05:22.742Z,15.85
2024-04-25T18:07:53.883Z,26.02
2024-04-25T18:10:25.114Z,18.75
2024-04-25T18:12:58.959Z,17.90
2024-04-25T18:15:30.531Z,20.48
2024-04-25T18:18:04.722Z,19.35
2024-04-25T18:20:36.443Z,15.02
2024-04-25T18:23:07.812Z,17.10
2024-04-25T18:25:38.943Z,17.60
2024-04-25T18:28:12.944Z,18.63
2024-04-25T18:30:44.148Z,28.00
2024-04-25T18:33:15.408Z,27.50
2024-04-25T18:35:46.708Z,22.17
2024-04-25T18:38:20.291Z,23.30
2024-04-25T18:40:51.558Z,22.20
2024-04-25T18:43:25.467Z,22.15
2024-04-25T18:45:56.736Z,18.63
2024-04-25T18:48:30.214Z,22.48
2024-04-25T18:51:01.454Z,21.35
2024-04-25T18:53:32.621Z,24.13
2024-04-25T18:56:03.815Z,16.40
2024-04-25T18:58:37.688Z,16.40
2024-04-25T19:01:09.019Z,17.55
2024-04-25T19:03:41.732Z,23.10
2024-04-25T19:06:13.224Z,21.77
2024-04-25T19:08:44.525Z,28.27
2024-04-25T19:11:15.901Z,27.02
2024-04-25T19:13:49.755Z,23.70
2024-04-25T19:16:35.702Z,24.00
2024-04-25T19:19:06.961Z,22.95
2024-04-25T19:21:43.808Z,24.75
2024-04-25T19:24:16.828Z,23.92
2024-04-25T19:26:50.122Z,21.23
2024-04-25T19:29:24.253Z,20.65
2024-04-25T19:31:57.379Z,25.35
2024-04-25T19:37:00.885Z,23.90
2024-04-25T19:39:32.109Z,19.95
2024-04-25T19:42:05.307Z,19.38
2024-04-25T19:44:39.280Z,17.05
2024-04-25T19:47:10.558Z,16.92
2024-04-25T19:49:41.977Z,16.30
2024-04-25T19:52:13.923Z,13.93
2024-04-25T19:54:45.207Z,12.30
2024-04-25T19:57:18.274Z,15.40
2024-04-25T19:59:52.350Z,12.32
2024-04-25T20:02:29.945Z,12.63
2024-04-25T20:05:01.465Z,13.57
2024-04-25T20:07:35.356Z,13.48
2024-04-25T20:10:06.919Z,16.15
2024-04-25T20:12:38.097Z,14.65
2024-04-25T20:15:12.664Z,15.70
2024-04-25T20:17:59.857Z,14.63
2024-04-25T20:20:46.720Z,17.98
2024-04-25T20:23:17.828Z,19.50
2024-04-25T20:25:49.007Z,20.02
2024-04-25T20:28:20.395Z,16.70
2024-04-25T20:30:54.279Z,17.25
2024-04-25T20:33:25.586Z,14.68
2024-04-25T20:35:56.892Z,12.52
2024-04-25T20:38:28.203Z,13.27
2024-04-25T20:40:59.370Z,11.18
2024-04-25T20:43:30.581Z,11.15
2024-04-25T20:46:04.529Z,11.13
2024-04-25T20:48:35.952Z,12.27
2024-04-25T20:51:07.603Z,14.88
2024-04-25T20:53:41.992Z,14.70
2024-04-25T20:56:13.404Z,13.93
2024-04-25T20:58:45.935Z,15.50
2024-04-25T21:01:20.452Z,16.83
2024-04-25T21:03:51.629Z,16.02
2024-04-25T21:06:28.083Z,17.10
2024-04-25T21:08:59.646Z,16.30
2024-04-25T21:11:31.077Z,18.27
2024-04-25T21:14:02.172Z,16.25
2024-04-25T21:16:41.197Z,22.40
2024-04-25T21:19:12.470Z,18.98
2024-04-25T21:21:49.487Z,19.00
2024-04-25T21:24:20.740Z,25.73
2024-04-25T21:26:51.956Z,25.60
2024-04-25T21:29:23.610Z,21.30
2024-04-25T21:31:59.334Z,20.40
2024-04-25T21:34:30.687Z,22.67
2024-04-25T21:37:01.712Z,22.05
2024-04-25T21:39:32.843Z,19.27
2024-04-25T21:42:03.925Z,17.42
2024-04-25T21:44:35.123Z,14.30
2024-04-25T21:47:09.714Z,17.05
2024-04-25T21:49:40.956Z,15.68
2024-04-25T21:52:12.095Z,17.48
2024-04-25T21:54:43.541Z,14.05
2024-04-25T21:57:18.663Z,15.82
2024-04-25T21:59:51.060Z,16.20
2024-04-25T22:02:26.116Z,19.73
2024-04-25T22:04:57.218Z,15.68
2024-04-25T22:07:28.420Z,18.00
2024-04-25T22:09:59.522Z,16.38
2024-04-25T22:12:31.071Z,14.90
2024-04-25T22:15:02.533Z,15.05
2024-04-25T22:17:37.645Z,16.20
2024-04-25T22:20:09.694Z,22.08
2024-04-25T22:22:42.336Z,20.75
2024-04-25T22:25:13.749Z,18.35
2024-04-25T22:27:45.215Z,21.02
2024-04-25T22:30:16.374Z,14.75
2024-04-25T22:32:50.364Z,17.13
2024-04-25T22:35:21.642Z,15.50
2024-04-25T22:37:52.648Z,18.52
2024-04-25T22:40:24.376Z,16.77
2024-04-25T22:42:52.933Z,16.45
2024-04-25T22:45:28.535Z,16.65
2024-04-25T22:48:05.946Z,16.02
2024-04-25T22:50:37.017Z,13.98
2024-04-25T22:53:08.534Z,14.98
2024-04-25T22:55:39.624Z,13.00
2024-04-25T22:58:10.917Z,14.15
2024-04-25T23:00:42.004Z,12.98
2024-04-25T23:03:16.120Z,11.70
2024-04-25T23:05:47.804Z,12.80
2024-04-25T23:08:19.185Z,12.95
2024-04-25T23:10:50.195Z,13.20
2024-04-25T23:13:24.399Z,12.57
2024-04-25T23:15:55.463Z,11.93
2024-04-25T23:18:29.455Z,12.98
2024-04-25T23:21:00.542Z,12.88
2024-04-25T23:23:31.720Z,13.27
2024-04-25T23:26:02.842Z,12.82
2024-04-25T23:28:33.849Z,12.10
2024-04-25T23:31:05.025Z,13.13
2024-04-25T23:33:38.909Z,13.93
2024-04-25T23:36:10.759Z,15.18
2024-04-25T23:38:41.869Z,13.38
2024-04-25T23:41:13.300Z,13.93
2024-04-25T23:43:44.439Z,14.65
2024-04-25T23:46:15.685Z,13.90
2024-04-25T23:48:49.650Z,14.48
2024-04-25T23:51:20.843Z,14.88
2024-04-25T23:53:52.968Z,14.88
2024-04-25T23:56:24.037Z,16.60
2024-04-25T23:58:56.074Z,16.52
